Time;durP1;ratioP1;P1;durP2;ratioP2;P2;SDS_P1;SDS_P2;PMS_P1;PMS_P2;Temp;Humidity;BMP_temperature;BMP_pressure;BME280_temperature;BME280_humidity;BME280_pressure;Samples;Min_cycle;Max_cycle;Signal;HPM_P1;HPM_P2
2021/06/07 00:01:55;;;;;;;;;;;;;;;22.65;53.96;101377.75;4966998;28;1224;-64
2021/06/07 00:04:23;;;;;;;;;;;;;;;22.68;54.23;101376.69;4966538;28;1986;-64
2021/06/07 00:06:49;;;;;;;;;;;;;;;22.69;54.46;101375.75;4968467;28;1304;-64
2021/06/07 00:09:17;;;;;;;;;;;;;;;22.69;54.05;101373.94;4968083;28;834;-64
2021/06/07 00:11:47;;;;;;;;;;;;;;;22.63;54.05;101373.44;4968299;28;1367;-64
2021/06/07 00:14:17;;;;;;;;;;;;;;;22.58;54.03;101375.56;4966529;28;1287;-64
2021/06/07 00:16:44;;;;;;;;;;;;;;;22.59;54.15;101375.44;4966658;28;1264;-64
2021/06/07 00:19:16;;;;;;;;;;;;;;;22.50;54.29;101372.50;4967692;28;1208;-64
2021/06/07 00:21:44;;;;;;;;;;;;;;;22.60;54.31;101373.66;4968212;28;1258;-64
2021/06/07 00:24:11;;;;;;;;;;;;;;;22.60;54.77;101373.66;4966382;28;1304;-64
2021/06/07 00:26:38;;;;;;;;;;;;;;;22.48;55.11;101366.44;4968105;28;1974;-64
2021/06/07 00:29:05;;;;;;;;;;;;;;;22.47;55.41;101364.75;4966681;28;959;-64
2021/06/07 00:31:32;;;;;;;;;;;;;;;22.50;55.40;101372.50;4967611;28;1339;-64
2021/06/07 00:33:59;;;;;;;;;;;;;;;22.51;55.77;101375.09;4966993;28;770;-64
2021/06/07 00:36:27;;;;;;;;;;;;;;;22.50;55.90;101375.16;4966222;28;1369;-64
2021/06/07 00:38:53;;;;;;;;;;;;;;;22.49;55.64;101376.13;4967378;28;1159;-63
2021/06/07 00:41:21;;;;;;;;;;;;;;;22.51;55.73;101372.44;4966918;28;1272;-64
2021/06/07 00:43:55;;;;;;;;;;;;;;;22.42;55.67;101365.03;4965907;28;1203;-63
2021/06/07 00:46:22;;;;;;;;;;;;;;;22.44;55.46;101368.44;4967287;28;1976;-64
2021/06/07 00:48:49;;;;;;;;;;;;;;;22.40;55.46;101368.75;4967396;28;802;-64
2021/06/07 00:51:16;;;;;;;;;;;;;;;22.46;55.24;101363.91;4967366;28;1343;-63
2021/06/07 00:53:43;;;;;;;;;;;;;;;22.46;55.00;101360.41;4965864;28;1403;-65
2021/06/07 00:56:11;;;;;;;;;;;;;;;22.44;54.92;101362.28;4967689;28;1396;-65
2021/06/07 00:58:39;;;;;;;;;;;;;;;22.42;55.57;101359.72;4967095;28;1330;-65
2021/06/07 01:01:10;;;;;;;;;;;;;;;22.42;54.93;101358.88;4967357;28;1452;-65
2021/06/07 01:03:41;;;;;;;;;;;;;;;22.42;55.20;101354.44;4967302;28;833;-65
2021/06/07 01:06:08;;;;;;;;;;;;;;;22.40;55.09;101350.16;4967268;28;1903;-64
2021/06/07 01:08:36;;;;;;;;;;;;;;;22.40;55.05;101355.47;4967495;28;1092;-65
2021/06/07 01:11:03;;;;;;;;;;;;;;;22.45;54.87;101348.91;4967740;28;1121;-64
2021/06/07 01:13:30;;;;;;;;;;;;;;;22.40;55.77;101350.16;4967045;28;769;-64
2021/06/07 01:15:58;;;;;;;;;;;;;;;22.44;56.04;101351.66;4967396;28;1325;-64
2021/06/07 01:18:26;;;;;;;;;;;;;;;22.40;56.42;101348.38;4966940;28;1308;-64
2021/06/07 01:20:54;;;;;;;;;;;;;;;22.42;56.80;101348.25;4965694;28;1295;-64
2021/06/07 01:23:21;;;;;;;;;;;;;;;22.44;56.69;101349.00;4965636;28;1318;-64
2021/06/07 01:25:48;;;;;;;;;;;;;;;22.48;57.08;101343.41;4967139;28;1985;-64
2021/06/07 01:28:17;;;;;;;;;;;;;;;22.44;57.00;101349.00;4966884;28;1359;-64
2021/06/07 01:30:47;;;;;;;;;;;;;;;22.44;57.22;101346.34;4967250;28;1158;-64
2021/06/07 01:33:15;;;;;;;;;;;;;;;22.42;57.20;101345.59;4967110;28;1233;-64
2021/06/07 01:35:42;;;;;;;;;;;;;;;22.46;57.57;101344.47;4966859;28;1117;-64
2021/06/07 01:38:09;;;;;;;;;;;;;;;22.26;57.97;101349.22;4966489;28;1271;-64
2021/06/07 01:40:37;;;;;;;;;;;;;;;22.37;57.84;101340.59;4966495;28;1121;-64
2021/06/07 01:43:05;;;;;;;;;;;;;;;22.42;57.71;101346.47;4965361;28;1260;-64
2021/06/07 01:45:33;;;;;;;;;;;;;;;22.43;57.69;101339.34;4967790;28;2000;-64
2021/06/07 01:48:01;;;;;;;;;;;;;;;22.32;58.15;101340.88;4970414;28;1260;-64
2021/06/07 01:50:27;;;;;;;;;;;;;;;22.39;57.76;101345.78;4968725;28;1566;-64
2021/06/07 01:52:55;;;;;;;;;;;;;;;22.43;56.69;101344.66;4970172;28;1209;-64
2021/06/07 01:55:23;;;;;;;;;;;;;;;22.42;56.76;101342.94;4968551;28;1307;-64
2021/06/07 01:57:51;;;;;;;;;;;;;;;22.43;55.47;101334.91;4969895;28;1225;-64
2021/06/07 02:00:27;;;;;;;;;;;;;;;22.44;55.30;101333.94;4969765;28;1042;-64
2021/06/07 02:02:53;;;;;;;;;;;;;;;22.37;54.94;101332.63;4969939;28;1209;-64
2021/06/07 02:05:24;;;;;;;;;;;;;;;22.33;55.00;101339.06;4969666;28;1972;-64
2021/06/07 02:07:53;;;;;;;;;;;;;;;22.26;55.01;101327.97;4968691;28;1293;-64
2021/06/07 02:10:26;;;;;;;;;;;;;;;22.30;55.02;101336.63;4968410;28;1326;-64
2021/06/07 02:12:53;;;;;;;;;;;;;;;22.31;54.60;101331.19;4969593;28;1233;-64
2021/06/07 02:15:20;;;;;;;;;;;;;;;22.33;54.63;101337.28;4968357;28;1182;-64
2021/06/07 02:17:46;;;;;;;;;;;;;;;22.32;54.82;101326.75;4969788;28;1356;-64
2021/06/07 02:20:15;;;;;;;;;;;;;;;22.27;54.45;101327.06;4969777;28;1084;-64
2021/06/07 02:22:43;;;;;;;;;;;;;;;22.24;54.75;101324.59;4969678;28;1292;-62
2021/06/07 02:25:12;;;;;;;;;;;;;;;22.26;54.77;101327.97;4969361;28;1985;-63
2021/06/07 02:27:38;;;;;;;;;;;;;;;22.27;54.45;101318.22;4969129;28;1304;-63
2021/06/07 02:30:06;;;;;;;;;;;;;;;22.27;54.71;101319.09;4967824;28;1228;-63
2021/06/07 02:32:33;;;;;;;;;;;;;;;22.21;54.60;101318.63;4969788;28;1217;-62
2021/06/07 02:35:01;;;;;;;;;;;;;;;22.20;54.97;101309.78;4969433;28;1038;-65
2021/06/07 02:37:28;;;;;;;;;;;;;;;22.21;54.96;101316.81;4969363;28;1299;-63
2021/06/07 02:39:54;;;;;;;;;;;;;;;22.22;54.88;101310.53;4968901;28;1097;-63
2021/06/07 02:42:21;;;;;;;;;;;;;;;22.25;54.89;101313.00;4968839;28;1205;-63
2021/06/07 02:44:48;;;;;;;;;;;;;;;22.25;54.77;101318.31;4969191;28;836;-63
2021/06/07 02:47:16;;;;;;;;;;;;;;;22.30;54.59;101318.91;4968900;28;2044;-63
2021/06/07 02:49:43;;;;;;;;;;;;;;;22.28;54.57;101310.16;4969166;28;990;-63
2021/06/07 02:52:10;;;;;;;;;;;;;;;22.30;54.50;101313.59;4969548;28;1216;-63
2021/06/07 02:54:37;;;;;;;;;;;;;;;22.30;54.60;101308.28;4966777;28;1435;-64
2021/06/07 02:57:04;;;;;;;;;;;;;;;22.28;54.77;101304.84;4969098;28;1386;-63
2021/06/07 02:59:31;;;;;;;;;;;;;;;22.26;54.56;101309.41;4967653;28;1244;-64
2021/06/07 03:01:58;;;;;;;;;;;;;;;22.23;54.77;101306.09;4969398;28;1345;-64
2021/06/07 03:04:24;;;;;;;;;;;;;;;22.26;55.00;101304.09;4968972;28;822;-64
2021/06/07 03:06:51;;;;;;;;;;;;;;;22.25;54.72;101301.56;4969249;28;1938;-63
2021/06/07 03:09:18;;;;;;;;;;;;;;;22.20;55.10;101303.63;4969391;28;735;-64
2021/06/07 03:11:45;;;;;;;;;;;;;;;22.20;55.18;101301.84;4969116;28;1335;-64
2021/06/07 03:14:12;;;;;;;;;;;;;;;22.23;55.33;101301.63;4969025;28;1263;-64
2021/06/07 03:16:39;;;;;;;;;;;;;;;22.25;55.62;101293.59;4969130;28;1315;-63
2021/06/07 03:19:07;;;;;;;;;;;;;;;22.26;55.40;101296.13;4969028;28;799;-63
2021/06/07 03:21:33;;;;;;;;;;;;;;;22.24;55.59;101294.53;4968973;28;1277;-63
2021/06/07 03:24:00;;;;;;;;;;;;;;;22.24;55.54;101295.41;4968823;28;1020;-63
2021/06/07 03:26:27;;;;;;;;;;;;;;;22.18;55.74;101289.63;4968563;28;1906;-63
2021/06/07 03:28:54;;;;;;;;;;;;;;;22.12;56.05;101293.50;4968599;28;823;-64
2021/06/07 03:31:21;;;;;;;;;;;;;;;22.16;56.20;101292.34;4968238;28;1276;-63
2021/06/07 03:33:48;;;;;;;;;;;;;;;22.10;56.17;101290.09;4968525;28;787;-63
2021/06/07 03:36:15;;;;;;;;;;;;;;;22.07;56.48;101292.94;4968537;28;1374;-63
2021/06/07 03:38:41;;;;;;;;;;;;;;;22.11;56.73;101291.78;4967097;28;838;-64
2021/06/07 03:41:08;;;;;;;;;;;;;;;22.15;56.64;101282.72;4967651;28;1249;-63
2021/06/07 03:43:36;;;;;;;;;;;;;;;22.15;56.71;101288.00;4968384;28;841;-63
2021/06/07 03:46:03;;;;;;;;;;;;;;;22.10;56.75;101291.91;4968402;28;1970;-64
2021/06/07 03:48:30;;;;;;;;;;;;;;;21.99;57.43;101292.56;4968595;28;1155;-64
2021/06/07 03:50:57;;;;;;;;;;;;;;;22.06;57.22;101293.03;4968554;28;1037;-64
2021/06/07 03:53:23;;;;;;;;;;;;;;;22.06;57.40;101299.19;4968252;28;1298;-64
2021/06/07 03:55:51;;;;;;;;;;;;;;;22.09;56.98;101295.50;4968444;28;878;-64
2021/06/07 03:58:21;;;;;;;;;;;;;;;21.90;57.63;101292.28;4968275;28;1236;-63
2021/06/07 04:00:48;;;;;;;;;;;;;;;21.90;57.76;101298.44;4968683;28;1041;-63
2021/06/07 04:03:15;;;;;;;;;;;;;;;22.03;57.32;101293.22;4968026;28;1291;-63
2021/06/07 04:05:42;;;;;;;;;;;;;;;21.96;57.23;101298.06;4968149;28;1911;-64
2021/06/07 04:08:10;;;;;;;;;;;;;;;21.87;57.42;101292.44;4965655;28;1407;-63
2021/06/07 04:10:36;;;;;;;;;;;;;;;21.92;57.16;101299.19;4968118;28;1205;-63
2021/06/07 04:13:03;;;;;;;;;;;;;;;21.90;57.20;101297.56;4967972;28;1248;-63
2021/06/07 04:15:31;;;;;;;;;;;;;;;21.94;56.75;101299.97;4966143;28;1496;-63
2021/06/07 04:17:58;;;;;;;;;;;;;;;21.92;57.36;101300.97;4966369;28;1219;-63
2021/06/07 04:20:27;;;;;;;;;;;;;;;21.84;57.15;101295.25;4964845;28;1547;-64
2021/06/07 04:22:54;;;;;;;;;;;;;;;21.84;57.53;101304.09;4957953;28;1288;-63
2021/06/07 04:25:21;;;;;;;;;;;;;;;21.88;57.74;101302.09;4967903;28;1915;-64
2021/06/07 04:27:49;;;;;;;;;;;;;;;21.83;57.99;101305.00;4967450;28;1220;-63
2021/06/07 04:30:17;;;;;;;;;;;;;;;21.89;57.72;101299.38;4953387;28;1044;-63
2021/06/07 04:32:44;;;;;;;;;;;;;;;21.80;58.17;101310.50;4948464;28;1209;-64
2021/06/07 04:35:12;;;;;;;;;;;;;;;21.87;58.01;101300.38;4964060;28;1043;-64
2021/06/07 04:37:53;;;;;;;;;;;;;;;21.93;58.03;101303.56;4963110;28;1524;-64
2021/06/07 04:40:31;;;;;;;;;;;;;;;21.94;58.07;101305.25;4956564;28;1155;-65
2021/06/07 04:42:58;;;;;;;;;;;;;;;21.94;58.28;101309.72;4966831;28;1248;-62
2021/06/07 04:45:27;;;;;;;;;;;;;;;22.03;58.13;101299.38;4964565;28;1922;-62
2021/06/07 04:47:54;;;;;;;;;;;;;;;22.02;58.09;101302.97;4966011;28;1317;-63
2021/06/07 04:50:22;;;;;;;;;;;;;;;21.95;58.14;101301.66;4953795;28;1433;-63
2021/06/07 04:53:02;;;;;;;;;;;;;;;21.86;58.56;101307.47;4955885;28;1335;-63
2021/06/07 04:55:30;;;;;;;;;;;;;;;21.86;58.59;101307.47;4947610;28;1101;-62
2021/06/07 04:57:57;;;;;;;;;;;;;;;21.95;58.39;101301.66;4946114;28;1269;-63
2021/06/07 05:00:25;;;;;;;;;;;;;;;21.95;58.41;101306.09;4946246;28;1030;-63
2021/06/07 05:02:52;;;;;;;;;;;;;;;21.95;58.47;101312.25;4947359;28;1367;-62
2021/06/07 05:05:20;;;;;;;;;;;;;;;21.95;58.51;101308.75;4947537;28;1056;-64
2021/06/07 05:07:46;;;;;;;;;;;;;;;21.98;58.53;101300.63;4947534;28;1903;-63
2021/06/07 05:10:13;;;;;;;;;;;;;;;21.94;58.53;101307.91;4945782;28;1242;-63
2021/06/07 05:12:40;;;;;;;;;;;;;;;21.94;58.86;101299.97;4947610;28;1300;-64
2021/06/07 05:15:08;;;;;;;;;;;;;;;21.94;58.46;101309.72;4947234;28;1139;-65
2021/06/07 05:17:35;;;;;;;;;;;;;;;21.97;58.69;101310.38;4945440;28;1426;-64
2021/06/07 05:20:04;;;;;;;;;;;;;;;21.97;58.42;101305.06;4948830;28;1143;-62
2021/06/07 05:22:31;;;;;;;;;;;;;;;21.91;58.53;101300.16;4951536;28;1540;-64
2021/06/07 05:24:58;;;;;;;;;;;;;;;21.88;58.73;101307.41;4951314;28;1098;-66
2021/06/07 05:27:25;;;;;;;;;;;;;;;21.90;58.71;101311.69;4950562;28;1979;-64
2021/06/07 05:29:52;;;;;;;;;;;;;;;21.88;58.69;101313.59;4949982;28;817;-66
2021/06/07 05:32:18;;;;;;;;;;;;;;;21.89;58.52;101312.63;4961844;28;1209;-64
2021/06/07 05:34:45;;;;;;;;;;;;;;;22.07;58.39;101308.84;4969116;28;787;-63
2021/06/07 05:37:12;;;;;;;;;;;;;;;22.17;57.83;101304.69;4952886;28;1371;-63
2021/06/07 05:39:58;;;;;;;;;;;;;;;22.25;57.68;101310.34;4956864;28;1379;-62
2021/06/07 05:42:25;;;;;;;;;;;;;;;22.25;57.53;101317.47;4968244;28;1582;-63
2021/06/07 05:44:52;;;;;;;;;;;;;;;22.24;57.96;101319.28;4969688;28;842;-62
2021/06/07 05:47:19;;;;;;;;;;;;;;;22.30;57.58;101312.72;4968693;28;1985;-62
2021/06/07 05:49:46;;;;;;;;;;;;;;;22.28;57.86;101320.78;4962840;28;1587;-63
2021/06/07 05:52:13;;;;;;;;;;;;;;;22.37;57.41;101326.47;4969511;28;1237;-62
2021/06/07 05:54:41;;;;;;;;;;;;;;;22.37;57.99;101326.47;4969370;28;814;-63
2021/06/07 05:57:09;;;;;;;;;;;;;;;22.38;57.81;101325.50;4968929;28;1303;-64
2021/06/07 05:59:36;;;;;;;;;;;;;;;22.39;57.50;101327.22;4969220;28;793;-63
2021/06/07 06:02:05;;;;;;;;;;;;;;;22.49;57.46;101323.03;4970111;28;1308;-62
2021/06/07 06:04:32;;;;;;;;;;;;;;;22.47;57.46;101328.44;4969057;28;778;-63
2021/06/07 06:07:00;;;;;;;;;;;;;;;22.48;57.88;101329.28;4967779;28;1904;-62
2021/06/07 06:09:28;;;;;;;;;;;;;;;22.46;57.42;101334.72;5012219;28;1748;-65
2021/06/07 06:11:55;;;;;;;;;;;;;;;22.47;57.26;101332.88;4986145;28;1398;-65
2021/06/07 06:14:22;;;;;;;;;;;;;;;22.48;57.09;101326.63;4987531;28;844;-66
2021/06/07 06:16:49;;;;;;;;;;;;;;;22.46;57.27;101326.75;4987067;28;1450;-65
2021/06/07 06:19:16;;;;;;;;;;;;;;;22.49;57.47;101328.34;4985570;28;1111;-65
2021/06/07 06:21:42;;;;;;;;;;;;;;;22.53;57.34;101324.53;4976839;28;1300;-63
2021/06/07 06:24:10;;;;;;;;;;;;;;;22.50;56.49;101319.41;4967039;28;810;-65
2021/06/07 06:26:37;;;;;;;;;;;;;;;22.56;56.60;101329.66;4983644;28;1960;-63
2021/06/07 06:29:05;;;;;;;;;;;;;;;22.58;56.63;101333.94;4986292;28;782;-62
2021/06/07 06:31:32;;;;;;;;;;;;;;;22.64;56.58;101330.88;4985323;28;1267;-62
2021/06/07 06:33:59;;;;;;;;;;;;;;;22.61;56.32;101331.06;4986549;28;933;-65
2021/06/07 06:36:26;;;;;;;;;;;;;;;22.61;56.10;101343.50;4985040;28;1260;-65
2021/06/07 06:38:53;;;;;;;;;;;;;;;22.61;55.64;101332.88;4965142;28;1605;-64
2021/06/07 06:41:20;;;;;;;;;;;;;;;22.61;55.44;101343.50;4948711;28;1285;-65
2021/06/07 06:43:46;;;;;;;;;;;;;;;22.65;55.69;101345.03;4981512;28;1264;-63
2021/06/07 06:46:13;;;;;;;;;;;;;;;22.67;54.82;101333.38;4984495;28;1995;-64
2021/06/07 06:48:40;;;;;;;;;;;;;;;22.75;55.07;101336.38;4986378;28;778;-64
2021/06/07 06:51:09;;;;;;;;;;;;;;;22.77;55.00;101338.91;4981596;28;1501;-64
2021/06/07 06:53:36;;;;;;;;;;;;;;;22.75;54.59;101333.72;4964315;28;893;-65
2021/06/07 06:56:02;;;;;;;;;;;;;;;22.71;54.78;101340.16;4966520;28;1037;-61
2021/06/07 06:58:29;;;;;;;;;;;;;;;22.80;54.27;101342.22;4965868;28;1209;-68
2021/06/07 07:00:56;;;;;;;;;;;;;;;22.73;53.43;101343.59;4957833;28;1092;-68
2021/06/07 07:03:23;;;;;;;;;;;;;;;22.76;53.91;101342.53;4948312;28;1210;-68
2021/06/07 07:05:50;;;;;;;;;;;;;;;22.76;53.68;101338.09;4953833;28;1034;-67
2021/06/07 07:08:19;;;;;;;;;;;;;;;22.78;52.42;101346.81;4965875;28;1975;-68
2021/06/07 07:10:46;;;;;;;;;;;;;;;22.81;52.57;101351.06;4967409;28;1048;-67
2021/06/07 07:13:16;;;;;;;;;;;;;;;22.79;52.59;101350.31;4967597;28;1312;-69
2021/06/07 07:15:43;;;;;;;;;;;;;;;22.74;51.98;101355.91;4965086;28;1283;-68
2021/06/07 07:18:10;;;;;;;;;;;;;;;22.76;51.96;101363.78;4983620;28;1380;-68
2021/06/07 07:20:37;;;;;;;;;;;;;;;22.69;51.27;101357.16;4980671;28;1095;-70
2021/06/07 07:23:05;;;;;;;;;;;;;;;22.73;51.57;101356.88;4966645;28;1217;-69
2021/06/07 07:25:32;;;;;;;;;;;;;;;22.69;51.57;101358.00;4966613;28;1024;-68
2021/06/07 07:28:03;;;;;;;;;;;;;;;22.71;51.41;101353.44;4967060;28;1996;-69
2021/06/07 07:30:31;;;;;;;;;;;;;;;22.73;51.09;101356.03;4967164;28;1074;-68
2021/06/07 07:32:59;;;;;;;;;;;;;;;22.71;51.36;101356.09;4966994;28;1233;-68
2021/06/07 07:35:27;;;;;;;;;;;;;;;22.72;51.00;101357.81;4946566;28;1408;-69
2021/06/07 07:37:54;;;;;;;;;;;;;;;22.72;50.84;101352.50;4949907;28;1559;-68
2021/06/07 07:40:22;;;;;;;;;;;;;;;22.73;50.72;101356.03;4960794;28;1033;-70
2021/06/07 07:42:50;;;;;;;;;;;;;;;22.74;50.70;101350.59;4966524;28;1370;-70
2021/06/07 07:45:18;;;;;;;;;;;;;;;22.72;50.82;101352.50;4968200;28;1058;-70
2021/06/07 07:47:46;;;;;;;;;;;;;;;22.78;50.73;101346.81;4975519;28;1907;-68
2021/06/07 07:50:16;;;;;;;;;;;;;;;22.78;50.26;101340.63;4983687;28;1274;-67
2021/06/07 07:52:42;;;;;;;;;;;;;;;22.70;51.00;101345.59;4983695;28;1252;-66
2021/06/07 07:55:10;;;;;;;;;;;;;;;22.74;50.54;101344.44;4984943;28;953;-64
2021/06/07 07:57:38;;;;;;;;;;;;;;;22.72;50.48;101341.88;4964152;28;1495;-67
2021/06/07 08:00:06;;;;;;;;;;;;;;;22.76;51.17;101347.88;4955449;28;1273;-68
2021/06/07 08:02:33;;;;;;;;;;;;;;;22.75;51.10;101348.81;4955529;28;1249;-63
2021/06/07 08:05:02;;;;;;;;;;;;;;;22.79;50.58;101342.34;4966735;28;1062;-64
2021/06/07 08:07:29;;;;;;;;;;;;;;;22.79;50.55;101352.97;4967522;28;1910;-65
2021/06/07 08:09:55;;;;;;;;;;;;;;;22.86;50.18;101346.28;4966537;28;1152;-63
2021/06/07 08:12:22;;;;;;;;;;;;;;;22.87;50.51;101348.00;4966092;28;1300;-63
2021/06/07 08:14:52;;;;;;;;;;;;;;;22.88;50.00;101352.38;4966560;28;770;-62
2021/06/07 08:17:20;;;;;;;;;;;;;;;22.90;50.08;101347.81;4966296;28;1261;-63
2021/06/07 08:19:47;;;;;;;;;;;;;;;22.92;50.24;101348.56;4948524;28;953;-62
2021/06/07 08:22:13;;;;;;;;;;;;;;;22.93;50.03;101344.09;4980461;28;1304;-61
2021/06/07 08:24:41;;;;;;;;;;;;;;;22.93;49.80;101344.09;4969692;28;798;-63
2021/06/07 08:27:09;;;;;;;;;;;;;;;22.93;50.08;101344.94;4960728;28;1883;-61
2021/06/07 08:29:36;;;;;;;;;;;;;;;22.98;50.15;101342.84;4963480;28;1029;-64
2021/06/07 08:32:03;;;;;;;;;;;;;;;22.95;49.39;101343.03;4966705;28;1300;-63
2021/06/07 08:34:30;;;;;;;;;;;;;;;22.95;49.90;101350.19;4964947;28;806;-62
2021/06/07 08:36:57;;;;;;;;;;;;;;;22.93;49.46;101344.94;4967176;28;1280;-64
2021/06/07 08:39:23;;;;;;;;;;;;;;;22.93;49.56;101344.94;4949346;28;1062;-63
2021/06/07 08:41:51;;;;;;;;;;;;;;;22.94;49.97;101345.81;4965086;28;1366;-64
2021/06/07 08:44:24;;;;;;;;;;;;;;;22.94;49.72;101345.81;4965239;28;774;-64
2021/06/07 08:46:51;;;;;;;;;;;;;;;22.97;49.59;101341.16;4959623;28;2009;-62
2021/06/07 08:49:18;;;;;;;;;;;;;;;22.96;49.27;101339.44;4954641;28;812;-62
2021/06/07 08:51:45;;;;;;;;;;;;;;;23.00;49.54;101345.41;4945311;28;1245;-62
2021/06/07 08:54:12;;;;;;;;;;;;;;;22.99;49.66;101339.25;4945894;28;814;-63
2021/06/07 08:56:40;;;;;;;;;;;;;;;22.99;49.68;101336.59;4974305;28;1348;-61
2021/06/07 08:59:07;;;;;;;;;;;;;;;23.00;49.93;101338.28;4957380;28;753;-62
2021/06/07 09:01:37;;;;;;;;;;;;;;;23.02;49.56;101338.19;4965007;28;1362;-62
2021/06/07 09:04:12;;;;;;;;;;;;;;;23.02;49.39;101335.53;4947808;28;838;-62
2021/06/07 09:06:39;;;;;;;;;;;;;;;23.03;49.17;101332.78;4946580;29;1997;-61
2021/06/07 09:09:07;;;;;;;;;;;;;;;23.06;49.07;101331.72;4946612;28;941;-64
2021/06/07 09:11:41;;;;;;;;;;;;;;;23.07;50.99;101334.25;4959168;28;1307;-65
2021/06/07 09:14:17;;;;;;;;;;;;;;;23.05;49.37;101333.53;4954149;28;865;-61
2021/06/07 09:16:43;;;;;;;;;;;;;;;23.07;49.80;101333.44;4945145;28;1355;-63
2021/06/07 09:19:30;;;;;;;;;;;;;;;23.11;50.61;101335.78;4946532;28;822;-62
2021/06/07 09:22:16;;;;;;;;;;;;;;;23.10;51.58;101336.72;4963519;28;1261;-62
2021/06/07 09:25:02;;;;;;;;;;;;;;;23.10;51.20;101338.53;4963914;28;1314;-63
2021/06/07 09:27:30;;;;;;;;;;;;;;;23.12;52.76;101340.16;4965454;28;1914;-62
2021/06/07 09:29:57;;;;;;;;;;;;;;;23.15;53.98;101333.78;4964059;28;1394;-63
2021/06/07 09:32:24;;;;;;;;;;;;;;;23.15;54.27;101334.63;4965894;28;1295;-63
2021/06/07 09:34:50;;;;;;;;;;;;;;;;;;4964419;28;786;-63
2021/06/07 09:37:17;;;;;;;;;;;;;;;23.16;54.76;101341.63;4965567;28;1269;-64
2021/06/07 09:39:44;;;;;;;;;;;;;;;23.15;55.25;101342.59;4965655;28;707;-63
2021/06/07 09:42:14;;;;;;;;;;;;;;;23.17;55.64;101346.00;4965647;28;1295;-63
2021/06/07 09:44:43;;;;;;;;;;;;;;;23.11;55.80;101343.75;4965662;28;1083;-63
2021/06/07 09:47:21;;;;;;;;;;;;;;;23.11;55.60;101349.06;4964966;28;1914;-62
2021/06/07 09:49:48;;;;;;;;;;;;;;;23.15;56.17;101347.91;4965399;28;790;-62
2021/06/07 09:52:43;;;;;;;;;;;;;;;23.17;56.57;101343.34;4964916;28;1315;-63
2021/06/07 09:55:12;;;;;;;;;;;;;;;23.18;56.93;101350.38;4969677;28;1205;-63
2021/06/07 09:57:39;;;;;;;;;;;;;;;23.15;57.45;101345.25;4984947;28;1228;-64
2021/06/07 10:00:06;;;;;;;;;;;;;;;23.17;57.50;101356.63;4984668;28;1045;-62
2021/06/07 10:02:36;;;;;;;;;;;;;;;23.19;57.39;101348.56;4984732;28;1308;-62
2021/06/07 10:05:05;;;;;;;;;;;;;;;23.22;57.50;101354.50;4983944;28;1118;-62
2021/06/07 10:07:32;;;;;;;;;;;;;;;23.23;56.97;101356.22;4985842;28;1918;-63
2021/06/07 10:10:16;;;;;;;;;;;;;;;23.24;55.89;101357.94;4986431;28;1143;-63
2021/06/07 10:12:43;;;;;;;;;;;;;;;23.26;55.97;101363.13;4987805;28;1325;-62
2021/06/07 10:15:12;;;;;;;;;;;;;;;23.27;56.21;101355.06;4987760;28;1046;-62
2021/06/07 10:17:39;;;;;;;;;;;;;;;23.27;55.32;101360.41;4988286;28;1337;-63
2021/06/07 10:22:35;;;;;;;;;;;;;;;23.26;55.18;101358.69;4986316;28;1296;-63
2021/06/07 10:25:03;;;;;;;;;;;;;;;23.26;54.75;101369.31;4987855;28;1131;-63
2021/06/07 10:27:31;;;;;;;;;;;;;;;23.28;54.26;101367.44;4987527;28;1974;-63
2021/06/07 10:29:58;;;;;;;;;;;;;;;23.31;54.13;101364.56;4987465;28;1134;-62
2021/06/07 10:32:28;;;;;;;;;;;;;;;23.31;53.99;101364.56;4975065;28;1464;-63
2021/06/07 10:34:57;;;;;;;;;;;;;;;23.31;54.02;101361.91;4968329;28;997;-64
2021/06/07 10:37:25;;;;;;;;;;;;;;;23.30;54.00;101357.53;4949010;28;1351;-63
2021/06/07 10:39:52;;;;;;;;;;;;;;;23.33;53.52;101372.41;4947423;28;839;-62
2021/06/07 10:42:29;;;;;;;;;;;;;;;23.36;53.54;101365.09;4948608;29;1355;-62
2021/06/07 10:45:04;;;;;;;;;;;;;;;23.33;53.74;101359.97;4958181;28;1055;-61
2021/06/07 10:47:45;;;;;;;;;;;;;;;23.34;53.54;101371.47;4966609;28;1919;-63
2021/06/07 10:50:24;;;;;;;;;;;;;;;23.35;53.36;101363.38;4967955;28;1047;-63
2021/06/07 10:53:13;;;;;;;;;;;;;;;23.32;53.51;101360.94;4968718;28;1225;-63
2021/06/07 10:55:42;;;;;;;;;;;;;;;23.36;53.44;101362.44;4967957;28;1318;-63
2021/06/07 10:58:13;;;;;;;;;;;;;;;23.36;53.29;101358.94;4966340;28;1282;-63
2021/06/07 11:00:41;;;;;;;;;;;;;;;23.34;53.25;101361.69;4967249;28;1107;-62
2021/06/07 11:03:15;;;;;;;;;;;;;;;23.35;52.65;101357.22;4957788;28;1216;-64
2021/06/07 11:05:42;;;;;;;;;;;;;;;23.34;52.68;101360.84;4946950;28;1074;-63
2021/06/07 11:08:17;;;;;;;;;;;;;;;23.37;52.05;101356.19;4948473;28;1946;-63
2021/06/07 11:10:48;;;;;;;;;;;;;;;23.39;51.46;101366.72;4947048;28;1230;-63
2021/06/07 11:13:17;;;;;;;;;;;;;;;23.38;51.32;101362.31;4946656;28;1246;-64
2021/06/07 11:16:00;;;;;;;;;;;;;;;23.36;51.76;101359.78;4948529;28;1134;-63
2021/06/07 11:18:38;;;;;;;;;;;;;;;23.38;51.92;101360.53;4947554;28;1198;-63
2021/06/07 11:21:08;;;;;;;;;;;;;;;23.38;51.20;101360.53;4947964;28;1375;-64
2021/06/07 11:23:38;;;;;;;;;;;;;;;23.41;52.07;101361.31;4948106;28;925;-64
2021/06/07 11:26:06;;;;;;;;;;;;;;;23.38;51.52;101351.69;4947980;28;1287;-65
2021/06/07 11:28:41;;;;;;;;;;;;;;;23.38;51.02;101357.88;4946627;28;1946;-64
2021/06/07 11:31:17;;;;;;;;;;;;;;;23.40;50.93;101360.47;4948278;28;1242;-64
2021/06/07 11:33:59;;;;;;;;;;;;;;;23.41;51.32;101356.00;4946643;28;873;-64
2021/06/07 11:36:48;;;;;;;;;;;;;;;23.41;51.52;101361.31;4947509;29;1343;-63
2021/06/07 11:39:37;;;;;;;;;;;;;;;23.41;50.93;101353.34;4947691;29;945;-62
2021/06/07 11:42:04;;;;;;;;;;;;;;;23.43;51.19;101356.75;4948199;28;1307;-63
2021/06/07 11:44:44;;;;;;;;;;;;;;;23.56;50.75;101354.97;4953580;28;1798;-71
2021/06/07 11:47:12;;;;;;;;;;;;;;;23.60;50.61;101351.13;4941545;28;1706;-64
2021/06/07 11:49:57;;;;;;;;;;;;;;;23.58;51.21;101347.72;4946471;28;1918;-62
2021/06/07 11:52:33;;;;;;;;;;;;;;;23.68;51.04;101336.34;4960131;28;1249;-63
2021/06/07 11:55:17;;;;;;;;;;;;;;;23.69;51.83;101334.53;4953981;28;1182;-63
2021/06/07 11:57:44;;;;;;;;;;;;;;;23.74;51.38;101338.59;4947940;28;1248;-62
2021/06/07 12:00:11;;;;;;;;;;;;;;;23.75;51.61;101331.47;4947614;28;1033;-59
2021/06/07 12:02:38;;;;;;;;;;;;;;;23.74;52.13;101332.44;4946698;28;1292;-65
2021/06/07 12:05:13;;;;;;;;;;;;;;;23.74;51.82;101327.94;4985413;28;1561;-66
2021/06/07 12:07:45;;;;;;;;;;;;;;;23.70;51.69;101330.94;5065910;28;1910;-64
2021/06/07 12:10:16;;;;;;;;;;;;;;;23.71;50.78;101328.16;4987635;28;1614;-67
2021/06/07 12:12:44;;;;;;;;;;;;;;;23.76;51.42;101319.88;4948121;28;1422;-68
2021/06/07 12:15:11;;;;;;;;;;;;;;;23.74;50.84;101316.47;5066569;28;1093;-70
2021/06/07 12:17:45;;;;;;;;;;;;;;;23.75;50.84;101313.69;5066603;28;1300;-69
2021/06/07 12:20:14;;;;;;;;;;;;;;;23.72;50.09;101308.59;5067955;28;1036;-67
2021/06/07 12:22:45;;;;;;;;;;;;;;;23.79;50.31;101314.34;5035271;28;1539;-66
2021/06/07 12:28:17;;;;;;;;;;;;;;;23.78;49.92;101315.28;4947039;28;1980;-65
2021/06/07 12:30:53;;;;;;;;;;;;;;;23.84;49.33;101317.53;4953448;28;1151;-64
2021/06/07 12:33:34;;;;;;;;;;;;;;;23.81;49.47;101304.44;4950632;28;1546;-69
2021/06/07 12:36:13;;;;;;;;;;;;;;;23.81;48.87;101307.94;4964069;28;1458;-68
2021/06/07 12:38:41;;;;;;;;;;;;;;;23.85;48.47;101308.59;4965236;28;1393;-67
2021/06/07 12:41:09;;;;;;;;;;;;;;;23.88;48.34;101314.56;4952585;28;1261;-64
2021/06/07 12:43:42;;;;;;;;;;;;;;;23.80;48.66;101308.06;4945298;28;1293;-66
2021/06/07 12:46:09;;;;;;;;;;;;;;;23.83;48.19;101305.19;4946276;28;1379;-63
2021/06/07 12:48:39;;;;;;;;;;;;;;;23.89;47.80;101308.25;4946546;28;1997;-68
2021/06/07 12:51:10;;;;;;;;;;;;;;;23.88;47.56;101306.59;4945178;29;1319;-64
2021/06/07 12:53:39;;;;;;;;;;;;;;;23.87;47.75;101314.66;4945192;28;1088;-62
2021/06/07 12:56:20;;;;;;;;;;;;;;;23.88;48.12;101309.25;4968780;28;1376;-64
2021/06/07 12:58:48;;;;;;;;;;;;;;;23.84;47.51;101304.22;4958964;28;1947;-64
2021/06/07 13:01:16;;;;;;;;;;;;;;;23.81;48.15;101299.13;4960410;28;1415;-63
2021/06/07 13:03:53;;;;;;;;;;;;;;;23.85;48.09;101293.50;4945529;28;1026;-65